Dura Bulk — 3ETF7 — position and weather

sailwx.info

Track history (hours):
 
Tides and Currents Weather Stations Pressure Air Temp Water Temp Dewpoint Dewpoint Depression Visibility Wind Speed Wind Dir Waves Ship Positions

Dura Bulk

Last reported at 2018-Apr-13 23:54 UTC. Time now 2018-Apr-23 09:50 UTC.
Position N 27°48' W 015°19'.
Warning: this ship's position is 9 days out of date.

Length 89 m; draft 6.3 m.

Type: Cargo ship. MMSI: 370545000.

Date/timePositionNaut miles runAvg speedWind from/ knotsBaromVisibWave heightAir tempDewpointWater temp
2018-Apr-13 23:54N 27°48' W 015°19'4 8.9
2018-Apr-13 23:30N 27°51' W 015°17'5 9.0
2018-Apr-13 23:00N 27°56' W 015°16'4 9.0
2018-Apr-13 22:30N 28°00' W 015°17'4 8.8
2018-Apr-13 22:00N 28°04' W 015°20'4 8.7
2018-Apr-13 21:30N 28°07' W 015°24'2 3.7
2018-Apr-13 21:00N 28°08' W 015°24'0 0.0
2018-Apr-13 20:30N 28°08' W 015°24'0 0.0
2018-Apr-13 20:00N 28°08' W 015°24'0 0.0
2018-Apr-13 19:30N 28°08' W 015°24'0 0.0
2018-Apr-13 18:56N 28°08' W 015°24'0 0.0
2018-Apr-13 18:26N 28°08' W 015°24'0 0.0
2018-Apr-13 17:56N 28°08' W 015°24'0 0.0
2018-Apr-13 17:26N 28°08' W 015°24'0 0.0
2018-Apr-13 16:56N 28°08' W 015°24'0 0.0
2018-Apr-13 16:29N 28°08' W 015°24'0 0.0
2018-Apr-13 15:59N 28°08' W 015°24'0 0.0
2018-Apr-13 15:29N 28°08' W 015°24'0 0.1
2018-Apr-13 15:00N 28°08' W 015°25'2 3.3
2018-Apr-13 14:30N 28°07' W 015°24'2 3.3
2018-Apr-13 14:00N 28°06' W 015°22'1 1.6
2018-Apr-13 13:29N 28°07' W 015°21'4 8.0
2018-Apr-13 13:00N 28°06' W 015°17'4 8.0
2018-Apr-13 12:30N 28°06' W 015°12'4 7.9
2018-Apr-13 12:00N 28°05' W 015°08'4 7.9
2018-Apr-13 11:30N 28°04' W 015°04'4 8.1
2018-Apr-13 11:01N 28°04' W 014°59'4 8.1
2018-Apr-13 10:30N 28°03' W 014°55'4 8.0
2018-Apr-13 10:00N 28°01' W 014°51'4 7.8
2018-Apr-13 09:31N 27°58' W 014°48'  
2018-Apr-10 22:19N 27°32' W 014°60'4 9.7
2018-Apr-10 21:52N 27°34' W 015°04'4 9.4
2018-Apr-10 21:28N 27°35' W 015°09'5 9.5
2018-Apr-10 20:59N 27°36' W 015°14'11 0.6
2018-Apr-10 03:48N 27°46' W 015°19'3 9.7
2018-Apr-10 03:30N 27°46' W 015°16'5 9.4
2018-Apr-10 03:00N 27°48' W 015°11'5 9.2
2018-Apr-10 02:30N 27°49' W 015°06'4 8.8
2018-Apr-10 02:00N 27°50' W 015°01'4 8.8
2018-Apr-10 01:30N 27°51' W 014°56'4 8.6
2018-Apr-10 01:00N 27°52' W 014°51'4 8.4
2018-Apr-10 00:29N 27°53' W 014°46'4 8.3
2018-Apr-10 00:00N 27°54' W 014°42'36 8.8
2018-Apr-09 19:56N 28°06' W 014°04'  
2018-Apr-04 20:59N 27°52' W 014°38'511.0
2018-Apr-04 20:29N 27°55' W 014°43'511.0
2018-Apr-04 19:59N 27°59' W 014°48'510.8
2018-Apr-04 19:30N 28°02' W 014°53'510.2
2018-Apr-04 19:00N 28°03' W 014°58'510.1
2018-Apr-04 18:30N 28°04' W 015°04'510.3
2018-Apr-04 18:00N 28°05' W 015°10'510.3
2018-Apr-04 17:30N 28°06' W 015°16'510.4
2018-Apr-04 17:00N 28°07' W 015°21'3 6.7
2018-Apr-04 16:30N 28°08' W 015°24'0 0.0
2018-Apr-04 16:00N 28°08' W 015°24'0 0.0
2018-Apr-04 15:20N 28°08' W 015°24'0 0.0
2018-Apr-04 14:50N 28°08' W 015°24'0 0.0
2018-Apr-04 14:23N 28°08' W 015°24'0 0.0
2018-Apr-04 13:53N 28°08' W 015°24'0 0.0
2018-Apr-04 13:22N 28°08' W 015°24'0 0.0
2018-Apr-04 12:52N 28°08' W 015°24'0 0.0
2018-Apr-04 12:22N 28°08' W 015°24'0 0.0
2018-Apr-04 11:52N 28°08' W 015°24'0 0.0
2018-Apr-04 11:22N 28°08' W 015°24'0 0.0
2018-Apr-04 10:52N 28°08' W 015°24'0 0.0
2018-Apr-04 10:22N 28°08' W 015°24'0 0.0
2018-Apr-04 09:52N 28°08' W 015°24'0 0.0
2018-Apr-04 09:25N 28°08' W 015°24'0 0.0
2018-Apr-04 08:55N 28°08' W 015°24'0 0.0
2018-Apr-04 08:25N 28°08' W 015°24'0 0.0
2018-Apr-04 07:55N 28°08' W 015°24'0 0.0
2018-Apr-04 07:25N 28°08' W 015°24'0 0.0
2018-Apr-04 06:55N 28°08' W 015°24'0 0.0
2018-Apr-04 06:25N 28°08' W 015°24'0 0.0
2018-Apr-04 05:55N 28°08' W 015°24'0 0.0
2018-Apr-04 05:25N 28°08' W 015°24'0 0.0
2018-Apr-04 04:58N 28°08' W 015°24'0 0.0
2018-Apr-04 04:28N 28°08' W 015°24'0 0.0
2018-Apr-04 03:58N 28°08' W 015°24'0 0.0
2018-Apr-04 03:28N 28°08' W 015°24'0 0.0
2018-Apr-04 02:58N 28°08' W 015°24'0 0.0
2018-Apr-04 02:28N 28°08' W 015°24'0 0.0
2018-Apr-04 01:58N 28°08' W 015°24'0 0.0
2018-Apr-04 01:25N 28°08' W 015°24'0 0.0
2018-Apr-04 00:58N 28°08' W 015°24'0 0.0
2018-Apr-04 00:28N 28°08' W 015°24'0 0.0
2018-Apr-03 23:58N 28°08' W 015°24'  
Track history (hours):
 
Tides and Currents Weather Stations Pressure Air Temp Water Temp Dewpoint Dewpoint Depression Visibility Wind Speed Wind Dir Waves Ship Positions

Dura Bulk

Last reported at 2018-Apr-13 23:54 UTC. Time now 2018-Apr-23 09:50 UTC.
Position N 27°48' W 015°19'.
Warning: this ship's position is 9 days out of date.

Length 89 m; draft 6.3 m.

Type: Cargo ship. MMSI: 370545000.

Date/timePositionNaut miles runAvg speedWind from/ knotsBaromVisibWave heightAir tempDewpointWater temp
2018-Apr-13 23:54N 27°48' W 015°19'4 8.9
2018-Apr-13 23:30N 27°51' W 015°17'5 9.0
2018-Apr-13 23:00N 27°56' W 015°16'4 9.0
2018-Apr-13 22:30N 28°00' W 015°17'4 8.8
2018-Apr-13 22:00N 28°04' W 015°20'4 8.7
2018-Apr-13 21:30N 28°07' W 015°24'2 3.7
2018-Apr-13 21:00N 28°08' W 015°24'0 0.0
2018-Apr-13 20:30N 28°08' W 015°24'0 0.0
2018-Apr-13 20:00N 28°08' W 015°24'0 0.0
2018-Apr-13 19:30N 28°08' W 015°24'0 0.0
2018-Apr-13 18:56N 28°08' W 015°24'0 0.0
2018-Apr-13 18:26N 28°08' W 015°24'0 0.0
2018-Apr-13 17:56N 28°08' W 015°24'0 0.0
2018-Apr-13 17:26N 28°08' W 015°24'0 0.0
2018-Apr-13 16:56N 28°08' W 015°24'0 0.0
2018-Apr-13 16:29N 28°08' W 015°24'0 0.0
2018-Apr-13 15:59N 28°08' W 015°24'0 0.0
2018-Apr-13 15:29N 28°08' W 015°24'0 0.1
2018-Apr-13 15:00N 28°08' W 015°25'2 3.3
2018-Apr-13 14:30N 28°07' W 015°24'2 3.3
2018-Apr-13 14:00N 28°06' W 015°22'1 1.6
2018-Apr-13 13:29N 28°07' W 015°21'4 8.0
2018-Apr-13 13:00N 28°06' W 015°17'4 8.0
2018-Apr-13 12:30N 28°06' W 015°12'4 7.9
2018-Apr-13 12:00N 28°05' W 015°08'4 7.9
2018-Apr-13 11:30N 28°04' W 015°04'4 8.1
2018-Apr-13 11:01N 28°04' W 014°59'4 8.1
2018-Apr-13 10:30N 28°03' W 014°55'4 8.0
2018-Apr-13 10:00N 28°01' W 014°51'4 7.8
2018-Apr-13 09:31N 27°58' W 014°48'  
2018-Apr-10 22:19N 27°32' W 014°60'4 9.7
2018-Apr-10 21:52N 27°34' W 015°04'4 9.4
2018-Apr-10 21:28N 27°35' W 015°09'5 9.5
2018-Apr-10 20:59N 27°36' W 015°14'11 0.6
2018-Apr-10 03:48N 27°46' W 015°19'3 9.7
2018-Apr-10 03:30N 27°46' W 015°16'5 9.4
2018-Apr-10 03:00N 27°48' W 015°11'5 9.2
2018-Apr-10 02:30N 27°49' W 015°06'4 8.8
2018-Apr-10 02:00N 27°50' W 015°01'4 8.8
2018-Apr-10 01:30N 27°51' W 014°56'4 8.6
2018-Apr-10 01:00N 27°52' W 014°51'4 8.4
2018-Apr-10 00:29N 27°53' W 014°46'4 8.3
2018-Apr-10 00:00N 27°54' W 014°42'36 8.8
2018-Apr-09 19:56N 28°06' W 014°04'  
2018-Apr-04 20:59N 27°52' W 014°38'511.0
2018-Apr-04 20:29N 27°55' W 014°43'511.0
2018-Apr-04 19:59N 27°59' W 014°48'510.8
2018-Apr-04 19:30N 28°02' W 014°53'510.2
2018-Apr-04 19:00N 28°03' W 014°58'510.1
2018-Apr-04 18:30N 28°04' W 015°04'510.3
2018-Apr-04 18:00N 28°05' W 015°10'510.3
2018-Apr-04 17:30N 28°06' W 015°16'510.4
2018-Apr-04 17:00N 28°07' W 015°21'3 6.7
2018-Apr-04 16:30N 28°08' W 015°24'0 0.0
2018-Apr-04 16:00N 28°08' W 015°24'0 0.0
2018-Apr-04 15:20N 28°08' W 015°24'0 0.0
2018-Apr-04 14:50N 28°08' W 015°24'0 0.0
2018-Apr-04 14:23N 28°08' W 015°24'0 0.0
2018-Apr-04 13:53N 28°08' W 015°24'0 0.0
2018-Apr-04 13:22N 28°08' W 015°24'0 0.0
2018-Apr-04 12:52N 28°08' W 015°24'0 0.0
2018-Apr-04 12:22N 28°08' W 015°24'0 0.0
2018-Apr-04 11:52N 28°08' W 015°24'0 0.0
2018-Apr-04 11:22N 28°08' W 015°24'0 0.0
2018-Apr-04 10:52N 28°08' W 015°24'0 0.0
2018-Apr-04 10:22N 28°08' W 015°24'0 0.0
2018-Apr-04 09:52N 28°08' W 015°24'0 0.0
2018-Apr-04 09:25N 28°08' W 015°24'0 0.0
2018-Apr-04 08:55N 28°08' W 015°24'0 0.0
2018-Apr-04 08:25N 28°08' W 015°24'0 0.0
2018-Apr-04 07:55N 28°08' W 015°24'0 0.0
2018-Apr-04 07:25N 28°08' W 015°24'0 0.0
2018-Apr-04 06:55N 28°08' W 015°24'0 0.0
2018-Apr-04 06:25N 28°08' W 015°24'0 0.0
2018-Apr-04 05:55N 28°08' W 015°24'0 0.0
2018-Apr-04 05:25N 28°08' W 015°24'0 0.0
2018-Apr-04 04:58N 28°08' W 015°24'0 0.0
2018-Apr-04 04:28N 28°08' W 015°24'0 0.0
2018-Apr-04 03:58N 28°08' W 015°24'0 0.0
2018-Apr-04 03:28N 28°08' W 015°24'0 0.0
2018-Apr-04 02:58N 28°08' W 015°24'0 0.0
2018-Apr-04 02:28N 28°08' W 015°24'0 0.0
2018-Apr-04 01:58N 28°08' W 015°24'0 0.0
2018-Apr-04 01:25N 28°08' W 015°24'0 0.0
2018-Apr-04 00:58N 28°08' W 015°24'0 0.0
2018-Apr-04 00:28N 28°08' W 015°24'0 0.0
2018-Apr-03 23:58N 28°08' W 015°24'  

Dump ship's entire track history